Архив погоды в Верхотурье

Метеограмма Верхотурье
Суббота, 20 Апреля
Время местн. Темп Ветер Видим Явления Облачность нижн/средн/верх Атм. давл. Влжн Точка росы ВНГО R Сост. почвы Tg s
Напр Скр Прв ур.ст ур.м изм
14:00 +6.7° С-З 2 - 50 км - облачно 755 766 +0.3 47% -3.7° 600 м - - - -
11:00 +5.7° С,С-З 3 - 50 км - преимущественно облачно 754 766 +0.3 52% -3.4° 600 м - - - -
08:00 +2.7° З,С-З 2 - 50 км - облачно 754 766 +0.4 63% -3.6° 600 м 0 Влажная (без луж) - -
05:00 +1.8° З,С-З 2 - 20 км - облачно 754 765 -0.1 64% -4.3° 600 м - - - -
02:00 +2° З 1 - 20 км - облачно 754 765 -0.2 58% -5.3° 600 м - - - -
Пятница, 19 Апреля
Время местн. Темп Ветер Видим Явления Облачность нижн/средн/верх Атм. давл. Влжн Точка росы ВНГО R Сост. почвы Tg s
Напр Скр Прв ур.ст ур.м изм
23:00 +3° З 2 - 20 км - облачно 754 766 0 51% -6.2° 600 м - - - -
20:00 +4.4° З 2 - 50 км - облачно 754 766 -0.4 45% -6.5° 600 м 0 - - -
17:00 +5.8° З,С-З 4 - 50 км - облачно 754 766 -0.5 37% -7.6° 600 м - - - -
14:00 +6.5° З,С-З 4 - 50 км - облачно 755 766 -0.8 36% -7.6° 600 м - - - -
11:00 +5.9° З,С-З 3 - более 50 км - преимущественно облачно 756 767 -0.8 40% -6.8° 600 м - - - -
08:00 З 2 - более 50 км - ясно 756 768 -0.6 41% -11.5° более 2.5 км 0 Замерзшая -6° -
05:00 -4.8° З 1 - 20 км - ясно 757 769 -0.6 53% -12.8° более 2.5 км - - - -
02:00 -4° З,С-З 1 - 20 км - ясно 757 770 -0.4 51% -12.6° более 2.5 км - - - -
Четверг, 18 Апреля
Время местн. Темп Ветер Видим Явления Облачность нижн/средн/верх Атм. давл. Влжн Точка росы ВНГО R Сост. почвы Tg s
Напр Скр Прв ур.ст ур.м изм
23:00 -2.2° З 1 - 20 км - ясно 758 770 +0.3 44% -12.8° более 2.5 км - - - -
20:00 +3.7° З 2 10 более 50 км - незначительная облачность 758 769 -0.1 25% -14.6° более 2.5 км 0 - - -
17:00 +5.9° З 4 10 50 км - незначительная облачность 758 769 -0.5 20% -15.1° более 2.5 км - - - -
14:00 +4.4° З 3 - 50 км - ясно 758 770 -0.1 19% -17.3° более 2.5 км - - - -
11:00 +1.3° З,С-З 3 - 50 км - ясно 758 770 -0.4 23% -17.5° более 2.5 км - - - -
08:00 -3.8° З 3 - 50 км - переменная облачность 759 771 +0.1 39% -15.8° более 2.5 км 0 Замерзшая - -
05:00 -7.7° З 2 - 20 км - переменная облачность 759 771 -0.4 52% -15.8° более 2.5 км - - - -
02:00 -6.5° З 2 - 20 км - переменная облачность 759 771 +0.2 47% -16° более 2.5 км - - - -
Среда, 17 Апреля
Время местн. Темп Ветер Видим Явления Облачность нижн/средн/верх Атм. давл. Влжн Точка росы ВНГО R Сост. почвы Tg s
Напр Скр Прв ур.ст ур.м изм
23:00 -3.9° З 2 - 20 км - переменная облачность 759 771 +0.1 35% -17.2° более 2.5 км - - - -
20:00 -1.2° С,С-З 3 - 50 км - переменная облачность 759 771 -0.2 25% -18.5° более 2.5 км 0 - - -
17:00 -0.9° С,С-З 5 - 50 км - незначительная облачность 759 771 +0.2 26% -17.8° более 2.5 км - - - -
14:00 -3.4° С 7 13 более 50 км - незначительная облачность 759 771 +0.8 34% -16.9° 1 км - - - -
11:00 -6.7° С 7 12 50 км небо без изменений {ливневые осадки, метель} незначительная облачность 758 770 +1.6 45% -16.6° 1 км - - - -